createdAt,value
2023-01-08T07:18:19.373Z,24.13
2023-01-08T07:23:21.029Z,24.40
2023-01-08T07:28:22.659Z,22.77
2023-01-08T07:33:24.340Z,23.43
2023-01-08T07:38:26.043Z,24.37
2023-01-08T07:43:30.143Z,23.33
2023-01-08T07:48:32.002Z,23.73
2023-01-08T07:53:34.433Z,23.53
2023-01-08T07:58:36.578Z,23.07
2023-01-08T08:03:39.531Z,23.00
2023-01-08T08:08:42.283Z,23.07
2023-01-08T08:13:45.222Z,23.30
2023-01-08T08:18:46.775Z,23.00
2023-01-08T08:23:48.467Z,24.63
2023-01-08T08:28:50.550Z,23.53
2023-01-08T08:33:52.155Z,25.17
2023-01-08T08:38:53.730Z,24.70
2023-01-08T08:43:55.300Z,26.13
2023-01-08T08:48:57.287Z,25.63
2023-01-08T08:53:58.975Z,26.27
2023-01-08T08:59:00.882Z,26.80
2023-01-08T09:04:02.642Z,24.87
2023-01-08T09:09:04.844Z,25.90
2023-01-08T09:14:06.507Z,24.93
2023-01-08T09:19:09.907Z,25.03
2023-01-08T09:24:11.717Z,24.87
2023-01-08T09:29:13.371Z,23.67
2023-01-08T09:34:15.211Z,23.07
2023-01-08T09:39:16.842Z,23.67
2023-01-08T09:44:22.868Z,24.23
2023-01-08T09:49:44.287Z,23.40
2023-01-08T09:54:45.885Z,22.10
2023-01-08T09:59:48.996Z,24.47
2023-01-08T10:05:00.790Z,23.77
2023-01-08T10:10:02.440Z,24.37
2023-01-08T10:15:07.944Z,24.80
2023-01-08T10:20:16.984Z,24.07
2023-01-08T10:25:22.225Z,23.50
2023-01-08T10:30:28.933Z,22.97
2023-01-08T10:35:55.895Z,22.97
2023-01-08T10:41:00.189Z,24.40
2023-01-08T10:46:15.854Z,22.83
2023-01-08T10:51:21.215Z,24.30
2023-01-08T10:56:25.520Z,24.07
2023-01-08T11:01:29.834Z,22.40
2023-01-08T11:06:47.240Z,24.50
2023-01-08T11:11:49.757Z,21.77
2023-01-08T11:16:51.587Z,22.80
2023-01-08T11:22:02.487Z,21.27
2023-01-08T11:27:12.992Z,21.57
2023-01-08T11:32:51.726Z,21.83
2023-01-08T11:37:58.334Z,21.47
2023-01-08T11:43:24.559Z,21.57
2023-01-08T11:48:31.781Z,22.43
2023-01-08T11:54:06.580Z,21.93
2023-01-08T11:59:23.411Z,21.30
2023-01-08T12:04:37.074Z,20.60
2023-01-08T12:09:49.693Z,21.97
2023-01-08T12:15:00.607Z,20.97
2023-01-08T12:20:38.201Z,21.03
2023-01-08T12:26:10.494Z,20.87
2023-01-08T12:31:51.481Z,20.47
2023-01-08T12:37:07.356Z,20.40
2023-01-08T12:42:13.865Z,22.20
2023-01-08T12:47:22.250Z,21.17
2023-01-08T12:52:51.090Z,22.00
2023-01-08T12:58:22.933Z,21.33
2023-01-08T13:03:28.841Z,22.07
2023-01-08T13:08:35.036Z,21.53
2023-01-08T13:13:41.804Z,22.17
2023-01-08T13:18:54.283Z,21.23
2023-01-08T13:24:21.202Z,22.20
2023-01-08T13:29:41.633Z,20.60
2023-01-08T13:34:44.063Z,20.87
2023-01-08T13:39:45.757Z,20.83
2023-01-08T13:44:59.971Z,21.90
2023-01-08T13:50:06.362Z,20.83
2023-01-08T13:55:21.561Z,21.97
2023-01-08T14:00:31.127Z,22.10
2023-01-08T14:05:36.984Z,21.00
2023-01-08T14:10:38.719Z,22.33
2023-01-08T14:15:40.387Z,22.43
2023-01-08T14:20:44.847Z,21.97
2023-01-08T14:25:50.532Z,20.37
2023-01-08T14:30:57.059Z,21.13
2023-01-08T14:36:00.897Z,21.57
2023-01-08T14:41:07.814Z,19.93
2023-01-08T14:46:29.016Z,20.73
2023-01-08T14:51:32.129Z,20.43
2023-01-08T14:56:36.136Z,19.83
2023-01-08T15:01:38.017Z,20.20
2023-01-08T15:06:39.808Z,21.07
2023-01-08T15:11:56.158Z,20.40
2023-01-08T15:17:00.182Z,19.97
2023-01-08T15:22:02.519Z,20.43
2023-01-08T15:27:10.190Z,20.87
2023-01-08T15:32:14.680Z,20.50
2023-01-08T15:37:16.662Z,20.97
2023-01-08T15:42:43.622Z,21.30
2023-01-08T15:47:45.208Z,20.80
2023-01-08T15:52:46.902Z,21.47
2023-01-08T15:57:49.273Z,22.20
2023-01-08T16:02:52.681Z,22.50
2023-01-08T16:07:54.365Z,21.67
2023-01-08T16:12:56.235Z,21.03
2023-01-08T16:17:59.228Z,21.20
2023-01-08T16:23:00.822Z,21.60
2023-01-08T16:28:03.247Z,20.80
2023-01-08T16:33:04.830Z,20.80
2023-01-08T16:38:06.563Z,21.23
2023-01-08T16:43:11.535Z,21.03
2023-01-08T16:48:13.398Z,22.90
2023-01-08T16:53:17.432Z,22.97
2023-01-08T16:58:19.095Z,22.00
2023-01-08T17:03:21.235Z,21.90
2023-01-08T17:08:23.051Z,23.87
2023-01-08T17:13:24.633Z,22.83
2023-01-08T17:18:26.186Z,22.80
2023-01-08T17:23:28.911Z,23.47
2023-01-08T17:28:31.717Z,23.37
2023-01-08T17:33:37.745Z,21.83
2023-01-08T17:38:39.950Z,34.37
2023-01-08T17:43:41.539Z,25.30
2023-01-08T17:48:45.064Z,23.43
2023-01-08T17:53:47.341Z,23.43
2023-01-08T17:58:50.280Z,25.00
2023-01-08T18:03:52.433Z,26.60
2023-01-08T18:08:54.212Z,26.20
2023-01-08T18:13:57.622Z,23.80
2023-01-08T18:19:00.282Z,23.37
2023-01-08T18:24:02.002Z,22.73
2023-01-08T18:29:03.861Z,22.43
2023-01-08T18:34:05.646Z,23.70
2023-01-08T18:39:07.330Z,22.87
2023-01-08T18:44:10.351Z,22.43
2023-01-08T18:49:11.972Z,23.97
2023-01-08T18:54:13.599Z,24.77
2023-01-08T18:59:15.330Z,26.60
2023-01-08T19:04:18.736Z,26.43
2023-01-08T19:09:20.450Z,25.97
2023-01-08T19:14:22.077Z,28.03
2023-01-08T19:19:23.744Z,27.33
2023-01-08T19:24:25.582Z,26.67
2023-01-08T19:29:27.200Z,28.13
2023-01-08T19:34:28.804Z,31.30
2023-01-08T19:39:30.667Z,31.70
2023-01-08T19:44:32.750Z,32.33
2023-01-08T19:49:34.815Z,34.43
2023-01-08T19:54:37.801Z,35.53
2023-01-08T19:59:39.464Z,36.20
2023-01-08T20:04:44.316Z,36.90
2023-01-08T20:09:45.914Z,37.67
2023-01-08T20:14:48.390Z,33.20
2023-01-08T20:19:50.267Z,36.67
2023-01-08T20:24:53.256Z,35.87
2023-01-08T20:29:54.874Z,34.63
2023-01-08T20:34:56.552Z,33.40
2023-01-08T20:39:58.233Z,34.73
2023-01-08T20:44:59.879Z,32.20
2023-01-08T20:50:03.314Z,32.27
